createdAt,value
2018-02-24T00:00:03.000Z,27.2
2018-02-24T00:02:02.000Z,27.2
2018-02-24T00:03:02.000Z,27.2
2018-02-24T00:05:02.000Z,27.2
2018-02-24T00:07:02.000Z,27.1
2018-02-24T00:08:02.000Z,27.1
2018-02-24T00:09:02.000Z,27.2
2018-02-24T00:10:02.000Z,27.3
2018-02-24T00:12:02.000Z,27.3
2018-02-24T00:13:02.000Z,27.3
2018-02-24T00:15:02.000Z,27.4
2018-02-24T00:17:02.000Z,27.3
2018-02-24T00:18:02.000Z,27.3
2018-02-24T00:20:02.000Z,27.3
2018-02-24T00:21:02.000Z,27.3
2018-02-24T00:22:47.000Z,27.3
2018-02-24T00:24:02.000Z,27.3
2018-02-24T00:26:02.000Z,27.3
2018-02-24T00:27:02.000Z,27.3
2018-02-24T00:29:02.000Z,27.2
2018-02-24T00:30:02.000Z,27.2
2018-02-24T00:32:02.000Z,27.2
2018-02-24T00:34:02.000Z,27.2
2018-02-24T00:35:02.000Z,27.2
2018-02-24T00:37:02.000Z,27.2
2018-02-24T00:40:49.000Z,26.7
2018-02-24T00:41:49.000Z,26.7
2018-02-24T00:43:49.000Z,26.7
2018-02-24T00:44:49.000Z,26.8
2018-02-24T00:46:49.000Z,26.8
2018-02-24T00:47:49.000Z,26.8
2018-02-24T00:49:49.000Z,26.9
2018-02-24T00:51:49.000Z,26.9
2018-02-24T00:52:49.000Z,27
2018-02-24T00:54:49.000Z,27
2018-02-24T00:55:49.000Z,27
2018-02-24T00:57:49.000Z,27
2018-02-24T00:58:49.000Z,27
2018-02-24T01:00:33.000Z,27
2018-02-24T01:01:49.000Z,27
2018-02-24T01:02:49.000Z,27.1
2018-02-24T01:03:49.000Z,27.1
2018-02-24T01:04:49.000Z,27.2
2018-02-24T01:05:49.000Z,27.2
2018-02-24T01:06:49.000Z,27.3
2018-02-24T01:08:49.000Z,27.3
2018-02-24T01:09:49.000Z,27.3
2018-02-24T01:11:49.000Z,27.3
2018-02-24T01:13:49.000Z,27.3
2018-02-24T01:15:49.000Z,27.2
2018-02-24T01:16:49.000Z,27.2
2018-02-24T01:18:49.000Z,27.1
2018-02-24T01:19:49.000Z,27.1
2018-02-24T01:20:49.000Z,27.1
2018-02-24T01:22:49.000Z,27.2
2018-02-24T01:23:49.000Z,27.2
2018-02-24T01:24:49.000Z,27.2
2018-02-24T01:26:49.000Z,27.2
2018-02-24T01:28:49.000Z,27.1
2018-02-24T01:30:49.000Z,27
2018-02-24T01:32:49.000Z,27
2018-02-24T01:33:49.000Z,27
2018-02-24T01:35:49.000Z,27
2018-02-24T01:37:49.000Z,27
2018-02-24T01:38:49.000Z,27
2018-02-24T01:39:49.000Z,27.1
2018-02-24T01:41:49.000Z,27.1
2018-02-24T01:43:49.000Z,27
2018-02-24T01:44:49.000Z,27
2018-02-24T01:46:49.000Z,27
2018-02-24T01:48:49.000Z,27
2018-02-24T01:50:49.000Z,27
2018-02-24T01:51:49.000Z,27
2018-02-24T01:52:49.000Z,27
2018-02-24T01:53:49.000Z,27.1
2018-02-24T01:55:49.000Z,27.1
2018-02-24T01:57:34.000Z,27.1
2018-02-24T01:58:49.000Z,27
2018-02-24T01:59:49.000Z,27.1
2018-02-24T02:01:49.000Z,27.1
2018-02-24T02:03:49.000Z,27
2018-02-24T02:04:49.000Z,27
2018-02-24T02:06:49.000Z,27
2018-02-24T02:07:49.000Z,27
2018-02-24T02:09:49.000Z,27
2018-02-24T02:10:49.000Z,27
2018-02-24T02:12:49.000Z,27
2018-02-24T02:13:49.000Z,27
2018-02-24T02:14:49.000Z,27
2018-02-24T02:16:49.000Z,27
2018-02-24T02:17:49.000Z,27
2018-02-24T02:19:49.000Z,27
2018-02-24T02:20:49.000Z,27
2018-02-24T02:21:49.000Z,27.1
2018-02-24T02:23:49.000Z,27.1
2018-02-24T02:24:49.000Z,27.1
2018-02-24T02:26:49.000Z,27.2
2018-02-24T02:28:34.000Z,27.1
2018-02-24T02:29:49.000Z,27
2018-02-24T02:30:49.000Z,27
2018-02-24T02:32:49.000Z,27
2018-02-24T02:34:49.000Z,26.9
2018-02-24T02:35:49.000Z,26.9
2018-02-24T02:36:49.000Z,26.9
2018-02-24T02:37:49.000Z,26.9
2018-02-24T02:39:49.000Z,27
2018-02-24T02:41:49.000Z,26.9
2018-02-24T02:42:49.000Z,26.9
2018-02-24T02:43:49.000Z,26.9
2018-02-24T02:45:49.000Z,26.9
2018-02-24T02:47:49.000Z,26.8
2018-02-24T02:48:49.000Z,26.8
2018-02-24T02:50:49.000Z,26.9
2018-02-24T02:51:49.000Z,26.9
2018-02-24T02:52:49.000Z,26.9
2018-02-24T02:54:49.000Z,26.9
2018-02-24T02:56:49.000Z,26.9
2018-02-24T02:58:49.000Z,26.8
2018-02-24T03:00:49.000Z,26.7
2018-02-24T03:02:49.000Z,26.7
2018-02-24T03:03:49.000Z,26.7
2018-02-24T03:05:49.000Z,26.7
2018-02-24T03:06:49.000Z,26.7
2018-02-24T03:07:49.000Z,26.8
2018-02-24T03:08:49.000Z,26.8
2018-02-24T03:10:49.000Z,26.8
2018-02-24T03:11:49.000Z,26.8
2018-02-24T03:13:49.000Z,26.8
2018-02-24T03:15:49.000Z,26.8
2018-02-24T03:16:49.000Z,26.8
2018-02-24T03:18:49.000Z,26.8
2018-02-24T03:20:49.000Z,26.7
2018-02-24T03:22:49.000Z,26.7
2018-02-24T03:23:49.000Z,26.7
2018-02-24T03:24:49.000Z,26.8
2018-02-24T03:25:49.000Z,26.8
2018-02-24T03:26:49.000Z,26.9
2018-02-24T03:27:49.000Z,27
2018-02-24T03:29:34.000Z,27
2018-02-24T03:30:49.000Z,26.9
2018-02-24T03:31:49.000Z,26.9
2018-02-24T03:33:34.000Z,26.9
2018-02-24T03:34:49.000Z,26.9
2018-02-24T03:35:49.000Z,26.9
2018-02-24T03:36:49.000Z,26.9
2018-02-24T03:37:49.000Z,27
2018-02-24T03:39:34.000Z,27
2018-02-24T03:40:49.000Z,27
2018-02-24T03:41:49.000Z,26.9
2018-02-24T03:42:49.000Z,27
2018-02-24T03:44:49.000Z,27
2018-02-24T03:46:49.000Z,26.9
2018-02-24T03:48:49.000Z,26.9
2018-02-24T03:49:49.000Z,26.8
2018-02-24T03:50:49.000Z,26.8
2018-02-24T03:52:49.000Z,26.8
2018-02-24T03:53:49.000Z,26.8
2018-02-24T03:55:49.000Z,26.8
2018-02-24T03:56:49.000Z,26.8
2018-02-24T03:58:49.000Z,26.9
2018-02-24T03:59:49.000Z,26.9
2018-02-24T04:01:34.000Z,26.9
2018-02-24T04:02:49.000Z,26.8
2018-02-24T04:03:49.000Z,26.8
2018-02-24T04:05:49.000Z,26.8
2018-02-24T04:06:49.000Z,26.8
2018-02-24T04:07:49.000Z,26.8
2018-02-24T04:09:49.000Z,26.9
2018-02-24T04:11:49.000Z,26.8
2018-02-24T04:13:49.000Z,26.8
2018-02-24T04:15:49.000Z,26.7
2018-02-24T04:17:49.000Z,26.7
2018-02-24T04:19:49.000Z,26.6
2018-02-24T04:20:49.000Z,26.6
2018-02-24T04:22:49.000Z,26.5
2018-02-24T04:23:49.000Z,26.5
2018-02-24T04:25:49.000Z,26.5
2018-02-24T04:26:49.000Z,26.5
2018-02-24T04:28:49.000Z,26.6
2018-02-24T04:30:49.000Z,26.6
2018-02-24T04:31:49.000Z,26.6
2018-02-24T04:33:34.000Z,26.7
2018-02-24T04:34:49.000Z,26.6
2018-02-24T04:36:49.000Z,26.6
2018-02-24T04:38:49.000Z,26.5
2018-02-24T04:40:49.000Z,26.5
2018-02-24T04:42:34.000Z,26.5
2018-02-24T04:43:49.000Z,26.5
2018-02-24T04:45:49.000Z,26.5
2018-02-24T04:46:49.000Z,26.5
2018-02-24T04:47:49.000Z,26.6
2018-02-24T04:49:49.000Z,26.7
2018-02-24T04:51:49.000Z,26.6
2018-02-24T04:53:49.000Z,26.6
2018-02-24T04:55:49.000Z,26.6
2018-02-24T04:56:49.000Z,26.6
2018-02-24T04:57:49.000Z,26.6
2018-02-24T04:59:34.000Z,26.7
2018-02-24T05:00:49.000Z,26.6
2018-02-24T05:01:49.000Z,26.5
2018-02-24T05:02:49.000Z,26.6
2018-02-24T05:04:49.000Z,26.6
2018-02-24T05:06:49.000Z,26.6
2018-02-24T05:07:49.000Z,26.6
2018-02-24T05:08:49.000Z,26.6
2018-02-24T05:09:49.000Z,26.6
2018-02-24T05:10:49.000Z,26.7
2018-02-24T05:11:49.000Z,26.7
2018-02-24T05:12:49.000Z,26.8
2018-02-24T05:14:34.000Z,26.8
2018-02-24T05:15:49.000Z,26.7
2018-02-24T05:17:49.000Z,26.6
2018-02-24T05:18:49.000Z,26.6
2018-02-24T05:20:49.000Z,26.6
2018-02-24T05:21:49.000Z,26.6
2018-02-24T05:23:49.000Z,26.6
2018-02-24T05:25:49.000Z,26.6
2018-02-24T05:27:49.000Z,26.5
2018-02-24T05:28:49.000Z,26.5
2018-02-24T05:30:49.000Z,26.5
2018-02-24T05:31:49.000Z,26.6
2018-02-24T05:32:49.000Z,26.6
2018-02-24T05:34:49.000Z,26.6
2018-02-24T05:36:49.000Z,26.6
2018-02-24T05:38:49.000Z,26.5
2018-02-24T05:40:49.000Z,26.5
2018-02-24T05:42:49.000Z,26.5
2018-02-24T05:44:49.000Z,26.5
2018-02-24T05:45:49.000Z,26.5
2018-02-24T05:46:49.000Z,26.5
2018-02-24T05:48:49.000Z,26.6
2018-02-24T05:49:49.000Z,26.6
2018-02-24T05:51:49.000Z,26.7
2018-02-24T05:52:49.000Z,26.7
2018-02-24T05:53:49.000Z,26.7
2018-02-24T05:55:49.000Z,26.7
2018-02-24T05:57:49.000Z,26.7
2018-02-24T05:59:49.000Z,26.6
2018-02-24T06:01:49.000Z,26.6
2018-02-24T06:03:49.000Z,26.5
2018-02-24T06:04:49.000Z,26.5
2018-02-24T06:05:49.000Z,26.5
2018-02-24T06:07:49.000Z,26.5
2018-02-24T06:08:49.000Z,26.5
2018-02-24T06:10:49.000Z,26.5
2018-02-24T06:11:49.000Z,26.5
2018-02-24T06:12:49.000Z,26.5
2018-02-24T06:13:49.000Z,26.5
2018-02-24T06:14:49.000Z,26.5
2018-02-24T06:15:49.000Z,26.6
2018-02-24T06:16:49.000Z,26.6
2018-02-24T06:17:49.000Z,26.7
2018-02-24T06:19:49.000Z,26.7
2018-02-24T06:21:49.000Z,26.6
2018-02-24T06:22:49.000Z,26.6
2018-02-24T06:24:49.000Z,26.6
2018-02-24T06:25:49.000Z,26.6
2018-02-24T06:27:49.000Z,26.6
2018-02-24T06:29:49.000Z,26.6
2018-02-24T06:31:34.000Z,26.6
2018-02-24T06:32:49.000Z,26.5
2018-02-24T06:33:49.000Z,26.5
2018-02-24T06:34:49.000Z,26.6
2018-02-24T06:36:49.000Z,26.6
2018-02-24T06:37:49.000Z,26.6
2018-02-24T06:38:49.000Z,26.7
2018-02-24T06:40:49.000Z,26.7
2018-02-24T06:42:49.000Z,26.6
2018-02-24T06:44:34.000Z,26.6
2018-02-24T06:45:49.000Z,26.6
2018-02-24T06:47:49.000Z,26.6
2018-02-24T06:49:49.000Z,26.6
2018-02-24T06:51:49.000Z,26.6
2018-02-24T06:52:49.000Z,26.6
2018-02-24T06:53:49.000Z,26.7
2018-02-24T06:55:49.000Z,26.8
2018-02-24T06:56:49.000Z,26.8
2018-02-24T06:58:49.000Z,26.8
2018-02-24T07:00:34.000Z,26.8
2018-02-24T07:01:49.000Z,26.8
2018-02-24T07:02:49.000Z,26.9
2018-02-24T07:03:49.000Z,26.9
2018-02-24T07:05:49.000Z,27
2018-02-24T07:06:49.000Z,27
2018-02-24T07:08:34.000Z,27.1
2018-02-24T07:09:49.000Z,27.1
2018-02-24T07:10:49.000Z,27.1
2018-02-24T07:12:49.000Z,27.2
2018-02-24T07:13:49.000Z,27.3
2018-02-24T07:14:49.000Z,27.4
2018-02-24T07:16:49.000Z,27.5
2018-02-24T07:17:49.000Z,27.5
2018-02-24T07:19:49.000Z,27.6
2018-02-24T07:20:49.000Z,27.7
2018-02-24T07:22:49.000Z,27.8
2018-02-24T07:23:49.000Z,27.9
2018-02-24T07:25:49.000Z,28
2018-02-24T07:26:49.000Z,28
2018-02-24T07:28:33.000Z,28.1
2018-02-24T07:29:49.000Z,28.1
2018-02-24T07:30:49.000Z,28.2
2018-02-24T07:32:49.000Z,28.3
2018-02-24T07:33:49.000Z,28.3
2018-02-24T07:35:33.000Z,28.4
2018-02-24T07:36:49.000Z,28.5
2018-02-24T07:38:49.000Z,28.5
2018-02-24T07:40:49.000Z,28.5
2018-02-24T07:42:49.000Z,28.5
2018-02-24T07:43:49.000Z,28.5
2018-02-24T07:45:49.000Z,28.6
2018-02-24T07:47:49.000Z,28.7
2018-02-24T07:48:49.000Z,28.8
2018-02-24T07:50:49.000Z,28.9
2018-02-24T07:52:49.000Z,29
2018-02-24T07:54:49.000Z,29
2018-02-24T07:56:49.000Z,29.1
2018-02-24T07:57:49.000Z,29.1
2018-02-24T07:59:49.000Z,29.2
2018-02-24T08:00:49.000Z,29.3
2018-02-24T08:02:49.000Z,29.4
2018-02-24T08:04:49.000Z,29.5
2018-02-24T08:06:49.000Z,29.5
2018-02-24T08:07:49.000Z,29.6
2018-02-24T08:09:49.000Z,29.6
2018-02-24T08:11:49.000Z,29.6
2018-02-24T08:12:49.000Z,29.7
2018-02-24T08:14:49.000Z,29.8
2018-02-24T08:15:49.000Z,29.9
2018-02-24T08:16:49.000Z,29.9
2018-02-24T08:17:49.000Z,30
2018-02-24T08:19:49.000Z,30.1
2018-02-24T08:21:49.000Z,30.1
2018-02-24T08:22:49.000Z,30.2
2018-02-24T08:24:49.000Z,30.4
2018-02-24T08:25:49.000Z,30.4
2018-02-24T08:26:49.000Z,30.5
2018-02-24T08:28:49.000Z,30.6
2018-02-24T08:29:48.000Z,30.7
2018-02-24T08:31:48.000Z,31
2018-02-24T08:33:33.000Z,31.2
2018-02-24T08:34:48.000Z,31.3
2018-02-24T08:35:48.000Z,31.4
2018-02-24T08:37:48.000Z,31.5
2018-02-24T08:39:48.000Z,31.4
2018-02-24T08:41:48.000Z,31.1
2018-02-24T08:42:48.000Z,31
2018-02-24T08:44:48.000Z,30.7
2018-02-24T08:46:48.000Z,30.3
2018-02-24T08:48:48.000Z,30
2018-02-24T08:50:48.000Z,29.7
2018-02-24T08:52:48.000Z,29.4
2018-02-24T08:53:48.000Z,29.4
2018-02-24T08:54:48.000Z,29.4
2018-02-24T08:55:48.000Z,29.4
2018-02-24T08:57:48.000Z,29.3
2018-02-24T08:59:48.000Z,29.2
2018-02-24T09:00:48.000Z,29.1
2018-02-24T09:02:48.000Z,29
2018-02-24T09:04:48.000Z,28.9
2018-02-24T09:06:48.000Z,28.8
2018-02-24T09:07:48.000Z,28.8
2018-02-24T09:09:48.000Z,28.7
2018-02-24T09:11:33.000Z,28.6
2018-02-24T09:12:48.000Z,28.6
2018-02-24T09:14:48.000Z,28.6
2018-02-24T09:15:48.000Z,28.5
2018-02-24T09:16:48.000Z,28.6
2018-02-24T09:18:48.000Z,28.6
2018-02-24T09:19:48.000Z,28.6
2018-02-24T09:21:48.000Z,28.6
2018-02-24T09:23:48.000Z,28.5
2018-02-24T09:24:48.000Z,28.5
2018-02-24T09:26:48.000Z,28.5
2018-02-24T09:28:48.000Z,28.5
2018-02-24T09:29:48.000Z,28.5
2018-02-24T09:31:33.000Z,28.5
2018-02-24T09:32:48.000Z,28.5
2018-02-24T09:33:49.000Z,28.5
2018-02-24T09:35:49.000Z,28.5
2018-02-24T09:37:49.000Z,28.4
2018-02-24T09:39:49.000Z,28.4
2018-02-24T09:40:49.000Z,28.3
2018-02-24T09:41:49.000Z,28.3
2018-02-24T09:43:49.000Z,28.3
2018-02-24T09:44:49.000Z,28.3
2018-02-24T09:46:49.000Z,28.2
2018-02-24T09:47:49.000Z,28.2
2018-02-24T09:49:49.000Z,28.2
2018-02-24T09:50:49.000Z,28.3
2018-02-24T09:52:49.000Z,28.3
2018-02-24T09:53:49.000Z,28.3
2018-02-24T09:54:49.000Z,28.3
2018-02-24T09:56:49.000Z,28.3
2018-02-24T09:57:49.000Z,28.4
2018-02-24T09:59:49.000Z,28.3
2018-02-24T10:00:49.000Z,28.3
2018-02-24T10:02:49.000Z,28.3
2018-02-24T10:03:49.000Z,28.3
2018-02-24T10:05:34.000Z,28.3
2018-02-24T10:06:49.000Z,28.3
2018-02-24T10:07:49.000Z,28.3
2018-02-24T10:08:49.000Z,28.3
2018-02-24T10:10:49.000Z,28.3
2018-02-24T10:12:49.000Z,28.2
2018-02-24T10:14:34.000Z,28.2
2018-02-24T10:15:49.000Z,28.1
2018-02-24T10:16:49.000Z,28.1
2018-02-24T10:18:34.000Z,28.2
2018-02-24T10:19:49.000Z,28.1
2018-02-24T10:20:49.000Z,28.1
2018-02-24T10:22:49.000Z,28.1
2018-02-24T10:23:49.000Z,28.1
2018-02-24T10:25:49.000Z,28.1
2018-02-24T10:26:49.000Z,28.2
2018-02-24T10:27:49.000Z,28.2
2018-02-24T10:28:49.000Z,28.3
2018-02-24T10:30:49.000Z,28.3
2018-02-24T10:32:49.000Z,28.3
2018-02-24T10:34:49.000Z,28.2
2018-02-24T10:36:49.000Z,28.1
2018-02-24T10:37:49.000Z,28.1
2018-02-24T10:38:49.000Z,28.1
2018-02-24T10:40:49.000Z,28.2
2018-02-24T10:42:49.000Z,28.1
2018-02-24T10:44:49.000Z,28
2018-02-24T10:46:49.000Z,27.9
2018-02-24T10:48:49.000Z,27.9
2018-02-24T10:49:49.000Z,27.8
2018-02-24T10:51:49.000Z,27.9
2018-02-24T10:52:49.000Z,27.9
2018-02-24T10:54:49.000Z,27.9
2018-02-24T10:55:49.000Z,27.9
2018-02-24T10:56:49.000Z,28
2018-02-24T10:57:49.000Z,28
2018-02-24T10:58:49.000Z,28
2018-02-24T11:00:49.000Z,28.1
2018-02-24T11:01:49.000Z,28.1
2018-02-24T11:02:49.000Z,28.1
2018-02-24T11:04:49.000Z,28.1
2018-02-24T11:05:49.000Z,28.1
2018-02-24T11:07:49.000Z,28.1
2018-02-24T11:09:49.000Z,28
2018-02-24T11:11:49.000Z,28
2018-02-24T11:12:49.000Z,28
2018-02-24T11:14:49.000Z,28
2018-02-24T11:16:49.000Z,27.9
2018-02-24T11:17:49.000Z,27.9
2018-02-24T11:19:49.000Z,28
2018-02-24T11:20:49.000Z,28
2018-02-24T11:22:49.000Z,27.9
2018-02-24T11:24:49.000Z,27.9
2018-02-24T11:25:49.000Z,27.9
2018-02-24T11:26:49.000Z,27.9
2018-02-24T11:27:49.000Z,27.9
2018-02-24T11:28:49.000Z,27.9
2018-02-24T11:29:49.000Z,27.9
2018-02-24T11:31:49.000Z,28
2018-02-24T11:32:49.000Z,28
2018-02-24T11:33:49.000Z,28
2018-02-24T11:34:49.000Z,28
2018-02-24T11:36:49.000Z,28
2018-02-24T11:37:49.000Z,28
2018-02-24T11:39:49.000Z,27.9
2018-02-24T11:40:49.000Z,27.9
2018-02-24T11:41:49.000Z,27.9
2018-02-24T11:43:49.000Z,27.9
2018-02-24T11:44:49.000Z,27.9
2018-02-24T11:46:49.000Z,27.9
2018-02-24T11:48:49.000Z,27.8
2018-02-24T11:49:49.000Z,27.8
2018-02-24T11:51:49.000Z,27.8
2018-02-24T11:52:49.000Z,27.8
2018-02-24T11:54:49.000Z,27.8
2018-02-24T11:56:49.000Z,27.8
2018-02-24T11:58:49.000Z,27.8
2018-02-24T11:59:49.000Z,27.8
2018-02-24T12:00:49.000Z,27.8
2018-02-24T12:02:49.000Z,27.9
2018-02-24T12:04:49.000Z,27.8
2018-02-24T12:06:49.000Z,27.7
2018-02-24T12:07:49.000Z,27.7
2018-02-24T12:08:49.000Z,27.7
2018-02-24T12:09:49.000Z,27.8
2018-02-24T12:11:49.000Z,27.8
2018-02-24T12:12:49.000Z,27.8
2018-02-24T12:13:49.000Z,27.8
2018-02-24T12:14:49.000Z,27.9
2018-02-24T12:15:49.000Z,28
2018-02-24T12:17:49.000Z,27.9
2018-02-24T12:18:49.000Z,27.9
2018-02-24T12:20:49.000Z,27.9
2018-02-24T12:21:49.000Z,27.9
2018-02-24T12:22:49.000Z,27.9
2018-02-24T12:23:49.000Z,28
2018-02-24T12:24:49.000Z,28
2018-02-24T12:26:49.000Z,28
2018-02-24T12:27:49.000Z,28
2018-02-24T12:28:49.000Z,28
2018-02-24T12:30:49.000Z,27.9
2018-02-24T12:31:49.000Z,27.8
2018-02-24T12:33:49.000Z,27.8
2018-02-24T12:34:49.000Z,27.8
2018-02-24T12:35:49.000Z,27.8
2018-02-24T12:36:49.000Z,27.9
2018-02-24T12:37:49.000Z,27.9
2018-02-24T12:38:49.000Z,28
2018-02-24T12:39:49.000Z,28
2018-02-24T12:41:49.000Z,28
2018-02-24T12:43:49.000Z,27.9
2018-02-24T12:44:49.000Z,27.9
2018-02-24T12:46:49.000Z,27.9
2018-02-24T12:48:49.000Z,27.8
2018-02-24T12:50:49.000Z,27.7
2018-02-24T12:52:49.000Z,27.7
2018-02-24T12:54:34.000Z,27.6
2018-02-24T12:55:49.000Z,27.6
2018-02-24T12:56:49.000Z,27.6
2018-02-24T12:58:49.000Z,27.6
2018-02-24T12:59:49.000Z,27.7
2018-02-24T13:01:49.000Z,27.7
2018-02-24T13:02:49.000Z,27.7
2018-02-24T13:04:49.000Z,27.7
2018-02-24T13:06:49.000Z,27.6
2018-02-24T13:07:49.000Z,27.5
2018-02-24T13:09:49.000Z,27.6
2018-02-24T13:11:49.000Z,27.6
2018-02-24T13:12:49.000Z,28.5
2018-02-24T13:14:49.000Z,31.2
2018-02-24T13:16:49.000Z,33.4
2018-02-24T13:18:49.000Z,35.1
2018-02-24T13:19:49.000Z,35.7
2018-02-24T13:21:49.000Z,36.7
2018-02-24T13:23:49.000Z,37
2018-02-24T13:24:49.000Z,36.3
2018-02-24T13:25:49.000Z,35.4
2018-02-24T13:27:49.000Z,33.8
2018-02-24T13:28:49.000Z,33.1
2018-02-24T13:30:49.000Z,32.1
2018-02-24T13:31:49.000Z,31.7
2018-02-24T13:33:49.000Z,31.1
2018-02-24T13:34:49.000Z,30.9
2018-02-24T13:35:49.000Z,30.7
2018-02-24T13:37:49.000Z,30.4
2018-02-24T13:38:49.000Z,30.2
2018-02-24T13:39:49.000Z,30.1
2018-02-24T13:40:49.000Z,30
2018-02-24T13:41:49.000Z,29.9
2018-02-24T13:43:49.000Z,29.7
2018-02-24T13:45:49.000Z,29.5
2018-02-24T13:47:49.000Z,29.3
2018-02-24T13:49:49.000Z,29.1
2018-02-24T13:51:49.000Z,29
2018-02-24T13:53:49.000Z,28.8
2018-02-24T13:54:49.000Z,28.8
2018-02-24T13:56:49.000Z,28.7
2018-02-24T13:58:49.000Z,28.7
2018-02-24T14:00:34.000Z,28.6
2018-02-24T14:01:49.000Z,28.6
2018-02-24T14:03:49.000Z,28.5
2018-02-24T14:04:49.000Z,28.5
2018-02-24T14:06:49.000Z,28.5
2018-02-24T14:08:49.000Z,28.5
2018-02-24T14:10:49.000Z,28.5
2018-02-24T14:11:49.000Z,28.5
2018-02-24T14:12:49.000Z,28.6
2018-02-24T14:14:49.000Z,28.9
2018-02-24T14:16:49.000Z,29.1
2018-02-24T14:17:49.000Z,29.1
2018-02-24T14:18:49.000Z,29.1
2018-02-24T14:20:49.000Z,29.3
2018-02-24T14:21:49.000Z,29.5
2018-02-24T14:22:49.000Z,29.8
2018-02-24T14:23:49.000Z,30
2018-02-24T14:24:49.000Z,30
2018-02-24T14:26:49.000Z,29.8
2018-02-24T14:28:49.000Z,29.9
2018-02-24T14:29:49.000Z,30.1
2018-02-24T14:30:49.000Z,30.4
2018-02-24T14:31:49.000Z,30.6
2018-02-24T14:33:49.000Z,30.3
2018-02-24T14:34:49.000Z,30
2018-02-24T14:36:49.000Z,29.6
2018-02-24T14:38:49.000Z,29.2
2018-02-24T14:39:49.000Z,29
2018-02-24T14:40:49.000Z,28.9
2018-02-24T14:41:49.000Z,28.9
2018-02-24T14:43:49.000Z,28.7
2018-02-24T14:44:49.000Z,28.7
2018-02-24T14:46:34.000Z,28.6
2018-02-24T14:47:49.000Z,28.5
2018-02-24T14:48:49.000Z,28.5
2018-02-24T14:50:49.000Z,28.5
2018-02-24T14:51:49.000Z,28.4
2018-02-24T14:53:49.000Z,28.4
2018-02-24T14:55:49.000Z,28.3
2018-02-24T14:56:49.000Z,28.3
2018-02-24T14:57:49.000Z,28.3
2018-02-24T14:58:49.000Z,28.2
2018-02-24T14:59:49.000Z,28.3
2018-02-24T15:01:49.000Z,28.3
2018-02-24T15:03:49.000Z,28.2
2018-02-24T15:04:49.000Z,28.1
2018-02-24T15:06:49.000Z,28.1
2018-02-24T15:07:49.000Z,28.1
2018-02-24T15:09:49.000Z,28
2018-02-24T15:10:49.000Z,28
2018-02-24T15:11:49.000Z,28
2018-02-24T15:13:49.000Z,28
2018-02-24T15:15:49.000Z,28
2018-02-24T15:16:49.000Z,27.9
2018-02-24T15:18:49.000Z,27.9
2018-02-24T15:19:49.000Z,27.9
2018-02-24T15:21:49.000Z,27.9
2018-02-24T15:22:49.000Z,27.9
2018-02-24T15:23:49.000Z,27.9
2018-02-24T15:25:49.000Z,27.8
2018-02-24T15:27:49.000Z,27.7
2018-02-24T15:29:49.000Z,27.7
2018-02-24T15:31:49.000Z,27.6
2018-02-24T15:33:49.000Z,27.5
2018-02-24T15:34:49.000Z,27.5
2018-02-24T15:35:49.000Z,27.5
2018-02-24T15:37:49.000Z,27.5
2018-02-24T15:39:49.000Z,27.4
2018-02-24T15:40:49.000Z,27.4
2018-02-24T15:41:49.000Z,27.4
2018-02-24T15:42:49.000Z,27.5
2018-02-24T15:44:49.000Z,27.5
2018-02-24T15:45:49.000Z,27.5
2018-02-24T15:46:49.000Z,27.5
2018-02-24T15:47:49.000Z,27.5
2018-02-24T15:48:49.000Z,27.5
2018-02-24T15:50:49.000Z,27.5
2018-02-24T15:52:34.000Z,27.5
2018-02-24T15:53:49.000Z,27.4
2018-02-24T15:54:49.000Z,27.4
2018-02-24T15:56:49.000Z,27.4
2018-02-24T15:57:49.000Z,27.4
2018-02-24T15:58:49.000Z,27.4
2018-02-24T15:59:49.000Z,27.5
2018-02-24T16:00:49.000Z,27.5
2018-02-24T16:02:49.000Z,27.5
2018-02-24T16:03:49.000Z,27.5
2018-02-24T16:07:35.000Z,27.1
2018-02-24T16:09:35.000Z,27
2018-02-24T16:11:35.000Z,27
2018-02-24T16:12:35.000Z,27.1
2018-02-24T16:14:35.000Z,27.2
2018-02-24T16:16:35.000Z,27.1
2018-02-24T16:17:35.000Z,27.1
2018-02-24T16:19:35.000Z,27.2
2018-02-24T16:21:35.000Z,27.2
2018-02-24T16:23:35.000Z,27.2
2018-02-24T16:25:35.000Z,27.2
2018-02-24T16:27:35.000Z,27.1
2018-02-24T16:28:35.000Z,27.2
2018-02-24T16:30:35.000Z,27.2
2018-02-24T16:32:35.000Z,27.1
2018-02-24T16:33:35.000Z,27.1
2018-02-24T16:35:35.000Z,27.1
2018-02-24T16:36:35.000Z,27.2
2018-02-24T16:38:35.000Z,27.2
2018-02-24T16:39:35.000Z,27.2
2018-02-24T16:41:35.000Z,27.2
2018-02-24T16:42:35.000Z,27.2
2018-02-24T16:44:35.000Z,27.2
2018-02-24T16:45:35.000Z,27.2
2018-02-24T16:47:35.000Z,27.3
2018-02-24T16:49:35.000Z,27.2
2018-02-24T16:50:35.000Z,27.2
2018-02-24T16:52:35.000Z,27.1
2018-02-24T16:54:35.000Z,27
2018-02-24T16:55:35.000Z,27
2018-02-24T16:56:35.000Z,27
2018-02-24T16:58:35.000Z,27.1
2018-02-24T17:00:35.000Z,27.1
2018-02-24T17:01:35.000Z,27.1
2018-02-24T17:02:35.000Z,27.1
2018-02-24T17:04:35.000Z,27.1
2018-02-24T17:05:35.000Z,27.1
2018-02-24T17:07:35.000Z,27
2018-02-24T17:09:35.000Z,27
2018-02-24T17:10:35.000Z,27
2018-02-24T17:11:35.000Z,27
2018-02-24T17:12:35.000Z,27
2018-02-24T17:14:35.000Z,27
2018-02-24T17:16:35.000Z,27
2018-02-24T17:17:35.000Z,26.9
2018-02-24T17:18:35.000Z,27
2018-02-24T17:20:35.000Z,27
2018-02-24T17:21:35.000Z,27
2018-02-24T17:23:35.000Z,27
2018-02-24T17:25:35.000Z,27
2018-02-24T17:26:35.000Z,27
2018-02-24T17:28:35.000Z,27
2018-02-24T17:30:35.000Z,26.9
2018-02-24T17:32:35.000Z,26.8
2018-02-24T17:34:35.000Z,26.8
2018-02-24T17:36:35.000Z,26.8
2018-02-24T17:37:35.000Z,26.8
2018-02-24T17:39:35.000Z,26.8
2018-02-24T17:40:35.000Z,26.8
2018-02-24T17:42:35.000Z,26.8
2018-02-24T17:43:35.000Z,26.8
2018-02-24T17:44:35.000Z,26.9
2018-02-24T17:46:35.000Z,26.9
2018-02-24T17:47:35.000Z,26.9
2018-02-24T17:49:35.000Z,27
2018-02-24T17:50:35.000Z,27
2018-02-24T17:52:35.000Z,27
2018-02-24T17:53:35.000Z,27
2018-02-24T17:54:35.000Z,27
2018-02-24T17:55:35.000Z,27
2018-02-24T17:56:35.000Z,27
2018-02-24T17:58:35.000Z,27
2018-02-24T17:59:35.000Z,27
2018-02-24T18:01:35.000Z,27
2018-02-24T18:03:35.000Z,26.9
2018-02-24T18:05:35.000Z,26.8
2018-02-24T18:06:35.000Z,26.7
2018-02-24T18:07:35.000Z,26.8
2018-02-24T18:08:35.000Z,26.8
2018-02-24T18:10:35.000Z,26.9
2018-02-24T18:11:35.000Z,26.9
2018-02-24T18:13:20.000Z,26.9
2018-02-24T18:14:35.000Z,26.9
2018-02-24T18:15:35.000Z,26.9
2018-02-24T18:17:35.000Z,26.8
2018-02-24T18:18:35.000Z,26.8
2018-02-24T18:19:35.000Z,26.8
2018-02-24T18:20:35.000Z,26.9
2018-02-24T18:21:35.000Z,27
2018-02-24T18:23:35.000Z,27
2018-02-24T18:24:35.000Z,27
2018-02-24T18:26:20.000Z,27
2018-02-24T18:27:35.000Z,27
2018-02-24T18:29:35.000Z,26.9
2018-02-24T18:30:35.000Z,26.9
2018-02-24T18:32:35.000Z,26.8
2018-02-24T18:34:35.000Z,26.7
2018-02-24T18:36:35.000Z,26.6
2018-02-24T18:38:35.000Z,26.6
2018-02-24T18:39:35.000Z,26.6
2018-02-24T18:40:35.000Z,26.6
2018-02-24T18:42:35.000Z,26.6
2018-02-24T18:44:35.000Z,26.6
2018-02-24T18:45:35.000Z,26.5
2018-02-24T18:46:35.000Z,26.6
2018-02-24T18:48:20.000Z,26.7
2018-02-24T18:49:35.000Z,26.6
2018-02-24T18:50:35.000Z,26.7
2018-02-24T18:52:35.000Z,26.7
2018-02-24T18:53:35.000Z,26.6
2018-02-24T18:55:35.000Z,26.6
2018-02-24T18:56:35.000Z,26.7
2018-02-24T18:58:35.000Z,26.7
2018-02-24T18:59:35.000Z,26.7
2018-02-24T19:01:35.000Z,26.7
2018-02-24T19:03:35.000Z,26.7
2018-02-24T19:07:21.000Z,26.3
2018-02-24T19:08:21.000Z,26.3
2018-02-24T19:10:21.000Z,26.3
2018-02-24T19:12:21.000Z,26.3
2018-02-24T19:13:21.000Z,26.3
2018-02-24T19:15:21.000Z,26.3
2018-02-24T19:17:21.000Z,26.4
2018-02-24T19:19:21.000Z,26.3
2018-02-24T19:20:21.000Z,26.3
2018-02-24T19:22:21.000Z,26.4
2018-02-24T19:24:21.000Z,26.4
2018-02-24T19:26:21.000Z,26.4
2018-02-24T19:28:21.000Z,26.4
2018-02-24T19:29:21.000Z,26.5
2018-02-24T19:30:21.000Z,26.5
2018-02-24T19:32:21.000Z,26.6
2018-02-24T19:34:06.000Z,26.6
2018-02-24T19:35:21.000Z,26.6
2018-02-24T19:37:06.000Z,26.6
2018-02-24T19:38:21.000Z,26.5
2018-02-24T19:39:21.000Z,26.5
2018-02-24T19:40:21.000Z,26.6
2018-02-24T19:42:21.000Z,26.7
2018-02-24T19:44:21.000Z,26.6
2018-02-24T19:45:21.000Z,26.6
2018-02-24T19:46:21.000Z,26.6
2018-02-24T19:48:21.000Z,26.7
2018-02-24T19:49:21.000Z,26.6
2018-02-24T19:51:21.000Z,26.7
2018-02-24T19:52:21.000Z,26.6
2018-02-24T19:53:21.000Z,26.7
2018-02-24T19:54:21.000Z,26.7
2018-02-24T19:55:21.000Z,26.8
2018-02-24T19:56:21.000Z,26.8
2018-02-24T19:58:21.000Z,26.8
2018-02-24T19:59:21.000Z,26.8
2018-02-24T20:01:21.000Z,26.8
2018-02-24T20:02:21.000Z,26.8
2018-02-24T20:03:21.000Z,26.8
2018-02-24T20:05:21.000Z,26.8
2018-02-24T20:06:21.000Z,26.8
2018-02-24T20:07:21.000Z,26.8
2018-02-24T20:09:21.000Z,26.7
2018-02-24T20:10:21.000Z,26.7
2018-02-24T20:11:21.000Z,26.7
2018-02-24T20:12:21.000Z,26.7
2018-02-24T20:13:21.000Z,26.8
2018-02-24T20:15:21.000Z,26.7